Ns Sabina — 3EEP8 — position and weather

sailwx.info

Track history (hours):
 
Tides and Currents Weather Stations Pressure Air Temp Water Temp Dewpoint Dewpoint Depression Visibility Wind Speed Wind Dir Waves Ship Positions

Ns Sabina

Last reported at 2018-Jun-18 12:59 UTC. Time now 2018-Jun-22 03:51 UTC.
Position N 35°53' E 014°31'.

Length 82 m; draft 4.8 m.

Type: Cargo ship. MMSI: 371763000.

Date/timePositionNaut miles runAvg speedWind from/ knotsBaromVisibWave heightAir tempDewpointWater temp
2018-Jun-18 12:59N 35°53' E 014°31'0 0.0
2018-Jun-18 11:43N 35°53' E 014°31'0 0.0
2018-Jun-18 11:19N 35°53' E 014°31'0 0.0
2018-Jun-18 10:58N 35°53' E 014°31'  
2018-Jun-14 20:17N 45°18' E 013°02'3 9.5
2018-Jun-14 19:59N 45°21' E 013°02'4 9.2
2018-Jun-14 19:31N 45°25' E 013°04'5 9.5
2018-Jun-14 18:59N 45°29' E 013°09'4 9.0
2018-Jun-14 18:30N 45°32' E 013°12'5 9.2
2018-Jun-14 18:01N 45°36' E 013°15'4 8.6
2018-Jun-14 17:30N 45°41' E 013°15'4 7.3
2018-Jun-14 17:01N 45°44' E 013°15'3 5.9
2018-Jun-14 16:30N 45°47' E 013°14'1 0.0
2018-Jun-14 00:23N 45°48' E 013°14'0 0.0
2018-Jun-13 23:53N 45°48' E 013°14'0 0.0
2018-Jun-13 23:02N 45°48' E 013°14'0 0.0
2018-Jun-13 22:59N 45°48' E 013°14'0 0.0
2018-Jun-13 22:22N 45°48' E 013°14'0 0.0
2018-Jun-13 21:58N 45°48' E 013°14'0 0.0
2018-Jun-13 21:22N 45°48' E 013°14'0 0.0
2018-Jun-13 20:49N 45°48' E 013°14'0 0.0
2018-Jun-13 20:19N 45°48' E 013°14'0 0.0
2018-Jun-13 19:54N 45°48' E 013°14'0 0.0
2018-Jun-13 19:03N 45°48' E 013°14'0 0.0
2018-Jun-13 18:57N 45°48' E 013°14'0 0.0
2018-Jun-13 18:15N 45°48' E 013°14'0 0.0
2018-Jun-13 18:00N 45°48' E 013°14'0 0.0
2018-Jun-13 17:26N 45°48' E 013°14'0 0.0
2018-Jun-13 16:50N 45°48' E 013°14'0 0.0
2018-Jun-13 15:35N 45°48' E 013°14'0 0.0
2018-Jun-12 07:17N 45°48' E 013°14'0 0.0
2018-Jun-12 06:59N 45°48' E 013°14'2 3.2
2018-Jun-12 06:30N 45°47' E 013°15'5 9.0
2018-Jun-12 06:00N 45°42' E 013°15'4 7.7
2018-Jun-12 05:30N 45°39' E 013°18'0 0.1
2018-Jun-12 04:55N 45°39' E 013°18'0 0.0
2018-Jun-12 04:28N 45°39' E 013°18'0 0.0
2018-Jun-12 03:52N 45°39' E 013°18'0 0.0
2018-Jun-12 03:25N 45°39' E 013°18'0 0.0
2018-Jun-12 02:52N 45°39' E 013°18'0 0.0
2018-Jun-12 02:27N 45°39' E 013°18'0 0.0
2018-Jun-12 01:57N 45°39' E 013°18'0 0.1
2018-Jun-12 00:45N 45°39' E 013°18'0 0.0
2018-Jun-12 00:30N 45°39' E 013°18'0 0.1
2018-Jun-11 23:59N 45°39' E 013°18'0 0.0
2018-Jun-11 23:29N 45°39' E 013°18'0 0.0
2018-Jun-11 22:11N 45°39' E 013°18'0 0.0
2018-Jun-11 21:40N 45°39' E 013°18'0 0.0
2018-Jun-11 21:25N 45°39' E 013°18'0 0.0
2018-Jun-11 19:42N 45°39' E 013°18'0 0.0
2018-Jun-11 19:03N 45°39' E 013°18'0 0.0
2018-Jun-11 18:15N 45°39' E 013°18'0 0.1
2018-Jun-11 17:57N 45°39' E 013°18'0 0.0
2018-Jun-11 17:30N 45°39' E 013°18'0 0.0
2018-Jun-11 16:08N 45°39' E 013°18'0 0.0
2018-Jun-11 15:41N 45°39' E 013°18'0 0.0
2018-Jun-11 15:26N 45°39' E 013°18'0 0.0
2018-Jun-11 14:49N 45°39' E 013°18'0 0.0
2018-Jun-11 14:28N 45°39' E 013°18'0 0.0
2018-Jun-11 13:58N 45°39' E 013°18'0 0.0
2018-Jun-11 12:39N 45°39' E 013°18'0 0.1
2018-Jun-11 12:24N 45°39' E 013°18'0 0.0
2018-Jun-11 12:00N 45°39' E 013°18'0 0.0
2018-Jun-11 11:27N 45°39' E 013°18'0 0.0
2018-Jun-11 10:48N 45°39' E 013°18'0 0.0
2018-Jun-11 09:38N 45°39' E 013°18'0 0.0
2018-Jun-11 09:08N 45°39' E 013°18'0 0.0
2018-Jun-11 08:59N 45°39' E 013°18'0 0.0
2018-Jun-11 06:52N 45°39' E 013°18'0 0.0
2018-Jun-11 06:16N 45°39' E 013°18'0 0.1
2018-Jun-11 05:48N 45°39' E 013°18'0 0.0
2018-Jun-11 04:42N 45°39' E 013°18'0 0.0
2018-Jun-11 04:21N 45°39' E 013°18'0 0.0
2018-Jun-11 03:45N 45°39' E 013°18'0 0.1
2018-Jun-11 03:14N 45°39' E 013°18'0 0.0
2018-Jun-11 02:44N 45°39' E 013°18'0 0.1
2018-Jun-11 02:29N 45°39' E 013°18'0 0.0
2018-Jun-10 23:52N 45°39' E 013°18'0 0.0
2018-Jun-10 23:28N 45°39' E 013°18'0 0.0
2018-Jun-10 22:54N 45°39' E 013°18'0 0.0
2018-Jun-10 21:51N 45°39' E 013°18'0 0.0
2018-Jun-10 21:24N 45°39' E 013°18'0 0.0
2018-Jun-10 20:51N 45°39' E 013°18'0 0.1
2018-Jun-10 20:29N 45°39' E 013°18'0 0.0
2018-Jun-10 19:53N 45°39' E 013°18'0 0.0
2018-Jun-10 19:17N 45°39' E 013°18'0 0.0
2018-Jun-10 18:47N 45°39' E 013°18'0 0.0
2018-Jun-10 18:22N 45°39' E 013°18'0 0.0
2018-Jun-10 17:55N 45°39' E 013°18'0 0.0
2018-Jun-10 17:16N 45°39' E 013°18'0 0.0
2018-Jun-10 16:58N 45°39' E 013°18'0 0.0
2018-Jun-10 16:28N 45°39' E 013°18'0 0.0
2018-Jun-10 15:51N 45°39' E 013°18'0 0.0
2018-Jun-10 15:27N 45°39' E 013°18'0 0.0
2018-Jun-10 14:51N 45°39' E 013°18'0 0.0
2018-Jun-10 14:21N 45°39' E 013°18'0 0.0
2018-Jun-10 12:47N 45°39' E 013°18'0 0.0
2018-Jun-10 12:11N 45°39' E 013°18'0 0.0
2018-Jun-10 11:47N 45°39' E 013°18'0 0.0
2018-Jun-10 11:22N 45°39' E 013°18'0 0.0
2018-Jun-10 10:55N 45°39' E 013°18'0 0.0
2018-Jun-10 10:25N 45°39' E 013°18'0 0.0
2018-Jun-10 09:55N 45°39' E 013°18'0 0.0
2018-Jun-10 09:22N 45°39' E 013°18'0 0.0
2018-Jun-10 08:57N 45°39' E 013°18'0 0.0
2018-Jun-10 08:12N 45°39' E 013°18'0 0.0
2018-Jun-10 07:39N 45°39' E 013°18'0 0.0
2018-Jun-10 07:30N 45°39' E 013°18'0 0.0
2018-Jun-10 07:00N 45°39' E 013°18'0 0.0
2018-Jun-10 06:05N 45°39' E 013°18'0 0.0
2018-Jun-10 05:41N 45°39' E 013°18'0 0.0
2018-Jun-10 05:29N 45°39' E 013°18'0 0.0
2018-Jun-10 04:50N 45°39' E 013°18'0 0.0
2018-Jun-10 03:49N 45°39' E 013°18'0 0.0
2018-Jun-10 03:22N 45°39' E 013°18'0 0.0
2018-Jun-10 02:55N 45°39' E 013°18'0 0.0
2018-Jun-10 01:51N 45°39' E 013°18'0 0.0
2018-Jun-10 01:15N 45°39' E 013°18'0 0.0
2018-Jun-10 01:00N 45°39' E 013°18'0 0.0
2018-Jun-10 00:21N 45°39' E 013°18'0 0.0
2018-Jun-10 00:00N 45°39' E 013°18'0 0.0
2018-Jun-09 23:20N 45°39' E 013°18'0 0.0
2018-Jun-09 22:53N 45°39' E 013°18'0 0.0
2018-Jun-09 22:20N 45°39' E 013°18'0 0.0
2018-Jun-09 21:47N 45°39' E 013°18'0 0.1
2018-Jun-09 21:19N 45°39' E 013°18'0 0.1
2018-Jun-09 20:58N 45°39' E 013°18'0 0.1
2018-Jun-09 20:28N 45°39' E 013°18'0 0.0
2018-Jun-09 19:55N 45°39' E 013°18'0 0.0
2018-Jun-09 19:18N 45°39' E 013°18'0 0.0
2018-Jun-09 18:45N 45°39' E 013°18'0 0.0
2018-Jun-09 18:30N 45°39' E 013°18'0 0.0
2018-Jun-09 17:54N 45°39' E 013°18'0 0.0
2018-Jun-09 17:27N 45°39' E 013°18'0 0.0
2018-Jun-09 16:17N 45°39' E 013°18'0 0.0
2018-Jun-09 15:44N 45°39' E 013°18'0 0.0
2018-Jun-09 15:26N 45°39' E 013°18'0 0.0
2018-Jun-09 14:30N 45°39' E 013°18'0 0.0
2018-Jun-09 13:27N 45°39' E 013°18'0 0.0
2018-Jun-09 12:59N 45°39' E 013°18'0 0.0
2018-Jun-09 12:20N 45°39' E 013°18'0 0.0
2018-Jun-09 11:59N 45°39' E 013°18'0 0.1
2018-Jun-09 11:29N 45°39' E 013°18'0 0.0
2018-Jun-09 10:49N 45°39' E 013°18'0 0.0
2018-Jun-09 10:27N 45°39' E 013°18'0 0.0
2018-Jun-09 09:58N 45°39' E 013°18'0 0.1
2018-Jun-09 09:28N 45°39' E 013°18'0 0.1
2018-Jun-09 08:58N 45°39' E 013°18'0 0.0
2018-Jun-09 08:27N 45°39' E 013°18'0 0.0
2018-Jun-09 08:00N 45°39' E 013°18'0 0.0
2018-Jun-09 07:03N 45°39' E 013°18'0 0.0
2018-Jun-09 07:00N 45°39' E 013°18'0 0.0
2018-Jun-09 06:18N 45°39' E 013°18'0 0.0
2018-Jun-09 05:53N 45°39' E 013°18'0 0.0
2018-Jun-09 05:29N 45°39' E 013°18'0 0.0
2018-Jun-09 04:50N 45°39' E 013°18'0 0.0
2018-Jun-09 04:11N 45°39' E 013°18'0 0.0
2018-Jun-09 03:58N 45°39' E 013°18'0 0.0
2018-Jun-09 03:25N 45°39' E 013°18'0 0.0
2018-Jun-09 02:40N 45°39' E 013°18'0 0.0
2018-Jun-09 02:25N 45°39' E 013°18'0 0.0
2018-Jun-09 01:33N 45°39' E 013°18'0 0.2
2018-Jun-09 01:30N 45°39' E 013°18'0 0.0
2018-Jun-09 01:00N 45°39' E 013°18'0 0.0
2018-Jun-09 00:30N 45°39' E 013°18'0 0.0
2018-Jun-08 23:51N 45°39' E 013°18'0 0.0
2018-Jun-08 23:14N 45°39' E 013°18'0 0.0
2018-Jun-08 22:59N 45°39' E 013°18'0 0.0
2018-Jun-08 22:29N 45°39' E 013°18'0 0.0
2018-Jun-08 21:53N 45°39' E 013°18'0 0.0
2018-Jun-08 21:17N 45°39' E 013°18'0 0.1
2018-Jun-08 20:52N 45°39' E 013°18'0 0.0
2018-Jun-08 20:19N 45°39' E 013°18'0 0.0
2018-Jun-08 19:58N 45°39' E 013°18'0 0.3
2018-Jun-08 19:28N 45°39' E 013°18'0 0.0
2018-Jun-08 18:58N 45°39' E 013°18'0 0.1
2018-Jun-08 18:30N 45°39' E 013°18'0 0.0
2018-Jun-08 17:51N 45°39' E 013°18'0 0.2
2018-Jun-08 17:24N 45°39' E 013°18'0 0.1
2018-Jun-08 16:51N 45°39' E 013°18'0 0.2
2018-Jun-08 16:30N 45°39' E 013°18'0 0.0
2018-Jun-08 15:29N 45°39' E 013°18'0 0.0
2018-Jun-08 14:56N 45°39' E 013°18'0 0.0
2018-Jun-08 14:17N 45°39' E 013°18'0 0.1
2018-Jun-08 13:58N 45°39' E 013°18'  
Track history (hours):
 
Tides and Currents Weather Stations Pressure Air Temp Water Temp Dewpoint Dewpoint Depression Visibility Wind Speed Wind Dir Waves Ship Positions

Ns Sabina

Last reported at 2018-Jun-18 12:59 UTC. Time now 2018-Jun-22 03:51 UTC.
Position N 35°53' E 014°31'.

Length 82 m; draft 4.8 m.

Type: Cargo ship. MMSI: 371763000.

Date/timePositionNaut miles runAvg speedWind from/ knotsBaromVisibWave heightAir tempDewpointWater temp
2018-Jun-18 12:59N 35°53' E 014°31'0 0.0
2018-Jun-18 11:43N 35°53' E 014°31'0 0.0
2018-Jun-18 11:19N 35°53' E 014°31'0 0.0
2018-Jun-18 10:58N 35°53' E 014°31'  
2018-Jun-14 20:17N 45°18' E 013°02'3 9.5
2018-Jun-14 19:59N 45°21' E 013°02'4 9.2
2018-Jun-14 19:31N 45°25' E 013°04'5 9.5
2018-Jun-14 18:59N 45°29' E 013°09'4 9.0
2018-Jun-14 18:30N 45°32' E 013°12'5 9.2
2018-Jun-14 18:01N 45°36' E 013°15'4 8.6
2018-Jun-14 17:30N 45°41' E 013°15'4 7.3
2018-Jun-14 17:01N 45°44' E 013°15'3 5.9
2018-Jun-14 16:30N 45°47' E 013°14'1 0.0
2018-Jun-14 00:23N 45°48' E 013°14'0 0.0
2018-Jun-13 23:53N 45°48' E 013°14'0 0.0
2018-Jun-13 23:02N 45°48' E 013°14'0 0.0
2018-Jun-13 22:59N 45°48' E 013°14'0 0.0
2018-Jun-13 22:22N 45°48' E 013°14'0 0.0
2018-Jun-13 21:58N 45°48' E 013°14'0 0.0
2018-Jun-13 21:22N 45°48' E 013°14'0 0.0
2018-Jun-13 20:49N 45°48' E 013°14'0 0.0
2018-Jun-13 20:19N 45°48' E 013°14'0 0.0
2018-Jun-13 19:54N 45°48' E 013°14'0 0.0
2018-Jun-13 19:03N 45°48' E 013°14'0 0.0
2018-Jun-13 18:57N 45°48' E 013°14'0 0.0
2018-Jun-13 18:15N 45°48' E 013°14'0 0.0
2018-Jun-13 18:00N 45°48' E 013°14'0 0.0
2018-Jun-13 17:26N 45°48' E 013°14'0 0.0
2018-Jun-13 16:50N 45°48' E 013°14'0 0.0
2018-Jun-13 15:35N 45°48' E 013°14'0 0.0
2018-Jun-12 07:17N 45°48' E 013°14'0 0.0
2018-Jun-12 06:59N 45°48' E 013°14'2 3.2
2018-Jun-12 06:30N 45°47' E 013°15'5 9.0
2018-Jun-12 06:00N 45°42' E 013°15'4 7.7
2018-Jun-12 05:30N 45°39' E 013°18'0 0.1
2018-Jun-12 04:55N 45°39' E 013°18'0 0.0
2018-Jun-12 04:28N 45°39' E 013°18'0 0.0
2018-Jun-12 03:52N 45°39' E 013°18'0 0.0
2018-Jun-12 03:25N 45°39' E 013°18'0 0.0
2018-Jun-12 02:52N 45°39' E 013°18'0 0.0
2018-Jun-12 02:27N 45°39' E 013°18'0 0.0
2018-Jun-12 01:57N 45°39' E 013°18'0 0.1
2018-Jun-12 00:45N 45°39' E 013°18'0 0.0
2018-Jun-12 00:30N 45°39' E 013°18'0 0.1
2018-Jun-11 23:59N 45°39' E 013°18'0 0.0
2018-Jun-11 23:29N 45°39' E 013°18'0 0.0
2018-Jun-11 22:11N 45°39' E 013°18'0 0.0
2018-Jun-11 21:40N 45°39' E 013°18'0 0.0
2018-Jun-11 21:25N 45°39' E 013°18'0 0.0
2018-Jun-11 19:42N 45°39' E 013°18'0 0.0
2018-Jun-11 19:03N 45°39' E 013°18'0 0.0
2018-Jun-11 18:15N 45°39' E 013°18'0 0.1
2018-Jun-11 17:57N 45°39' E 013°18'0 0.0
2018-Jun-11 17:30N 45°39' E 013°18'0 0.0
2018-Jun-11 16:08N 45°39' E 013°18'0 0.0
2018-Jun-11 15:41N 45°39' E 013°18'0 0.0
2018-Jun-11 15:26N 45°39' E 013°18'0 0.0
2018-Jun-11 14:49N 45°39' E 013°18'0 0.0
2018-Jun-11 14:28N 45°39' E 013°18'0 0.0
2018-Jun-11 13:58N 45°39' E 013°18'0 0.0
2018-Jun-11 12:39N 45°39' E 013°18'0 0.1
2018-Jun-11 12:24N 45°39' E 013°18'0 0.0
2018-Jun-11 12:00N 45°39' E 013°18'0 0.0
2018-Jun-11 11:27N 45°39' E 013°18'0 0.0
2018-Jun-11 10:48N 45°39' E 013°18'0 0.0
2018-Jun-11 09:38N 45°39' E 013°18'0 0.0
2018-Jun-11 09:08N 45°39' E 013°18'0 0.0
2018-Jun-11 08:59N 45°39' E 013°18'0 0.0
2018-Jun-11 06:52N 45°39' E 013°18'0 0.0
2018-Jun-11 06:16N 45°39' E 013°18'0 0.1
2018-Jun-11 05:48N 45°39' E 013°18'0 0.0
2018-Jun-11 04:42N 45°39' E 013°18'0 0.0
2018-Jun-11 04:21N 45°39' E 013°18'0 0.0
2018-Jun-11 03:45N 45°39' E 013°18'0 0.1
2018-Jun-11 03:14N 45°39' E 013°18'0 0.0
2018-Jun-11 02:44N 45°39' E 013°18'0 0.1
2018-Jun-11 02:29N 45°39' E 013°18'0 0.0
2018-Jun-10 23:52N 45°39' E 013°18'0 0.0
2018-Jun-10 23:28N 45°39' E 013°18'0 0.0
2018-Jun-10 22:54N 45°39' E 013°18'0 0.0
2018-Jun-10 21:51N 45°39' E 013°18'0 0.0
2018-Jun-10 21:24N 45°39' E 013°18'0 0.0
2018-Jun-10 20:51N 45°39' E 013°18'0 0.1
2018-Jun-10 20:29N 45°39' E 013°18'0 0.0
2018-Jun-10 19:53N 45°39' E 013°18'0 0.0
2018-Jun-10 19:17N 45°39' E 013°18'0 0.0
2018-Jun-10 18:47N 45°39' E 013°18'0 0.0
2018-Jun-10 18:22N 45°39' E 013°18'0 0.0
2018-Jun-10 17:55N 45°39' E 013°18'0 0.0
2018-Jun-10 17:16N 45°39' E 013°18'0 0.0
2018-Jun-10 16:58N 45°39' E 013°18'0 0.0
2018-Jun-10 16:28N 45°39' E 013°18'0 0.0
2018-Jun-10 15:51N 45°39' E 013°18'0 0.0
2018-Jun-10 15:27N 45°39' E 013°18'0 0.0
2018-Jun-10 14:51N 45°39' E 013°18'0 0.0
2018-Jun-10 14:21N 45°39' E 013°18'0 0.0
2018-Jun-10 12:47N 45°39' E 013°18'0 0.0
2018-Jun-10 12:11N 45°39' E 013°18'0 0.0
2018-Jun-10 11:47N 45°39' E 013°18'0 0.0
2018-Jun-10 11:22N 45°39' E 013°18'0 0.0
2018-Jun-10 10:55N 45°39' E 013°18'0 0.0
2018-Jun-10 10:25N 45°39' E 013°18'0 0.0
2018-Jun-10 09:55N 45°39' E 013°18'0 0.0
2018-Jun-10 09:22N 45°39' E 013°18'0 0.0
2018-Jun-10 08:57N 45°39' E 013°18'0 0.0
2018-Jun-10 08:12N 45°39' E 013°18'0 0.0
2018-Jun-10 07:39N 45°39' E 013°18'0 0.0
2018-Jun-10 07:30N 45°39' E 013°18'0 0.0
2018-Jun-10 07:00N 45°39' E 013°18'0 0.0
2018-Jun-10 06:05N 45°39' E 013°18'0 0.0
2018-Jun-10 05:41N 45°39' E 013°18'0 0.0
2018-Jun-10 05:29N 45°39' E 013°18'0 0.0
2018-Jun-10 04:50N 45°39' E 013°18'0 0.0
2018-Jun-10 03:49N 45°39' E 013°18'0 0.0
2018-Jun-10 03:22N 45°39' E 013°18'0 0.0
2018-Jun-10 02:55N 45°39' E 013°18'0 0.0
2018-Jun-10 01:51N 45°39' E 013°18'0 0.0
2018-Jun-10 01:15N 45°39' E 013°18'0 0.0
2018-Jun-10 01:00N 45°39' E 013°18'0 0.0
2018-Jun-10 00:21N 45°39' E 013°18'0 0.0
2018-Jun-10 00:00N 45°39' E 013°18'0 0.0
2018-Jun-09 23:20N 45°39' E 013°18'0 0.0
2018-Jun-09 22:53N 45°39' E 013°18'0 0.0
2018-Jun-09 22:20N 45°39' E 013°18'0 0.0
2018-Jun-09 21:47N 45°39' E 013°18'0 0.1
2018-Jun-09 21:19N 45°39' E 013°18'0 0.1
2018-Jun-09 20:58N 45°39' E 013°18'0 0.1
2018-Jun-09 20:28N 45°39' E 013°18'0 0.0
2018-Jun-09 19:55N 45°39' E 013°18'0 0.0
2018-Jun-09 19:18N 45°39' E 013°18'0 0.0
2018-Jun-09 18:45N 45°39' E 013°18'0 0.0
2018-Jun-09 18:30N 45°39' E 013°18'0 0.0
2018-Jun-09 17:54N 45°39' E 013°18'0 0.0
2018-Jun-09 17:27N 45°39' E 013°18'0 0.0
2018-Jun-09 16:17N 45°39' E 013°18'0 0.0
2018-Jun-09 15:44N 45°39' E 013°18'0 0.0
2018-Jun-09 15:26N 45°39' E 013°18'0 0.0
2018-Jun-09 14:30N 45°39' E 013°18'0 0.0
2018-Jun-09 13:27N 45°39' E 013°18'0 0.0
2018-Jun-09 12:59N 45°39' E 013°18'0 0.0
2018-Jun-09 12:20N 45°39' E 013°18'0 0.0
2018-Jun-09 11:59N 45°39' E 013°18'0 0.1
2018-Jun-09 11:29N 45°39' E 013°18'0 0.0
2018-Jun-09 10:49N 45°39' E 013°18'0 0.0
2018-Jun-09 10:27N 45°39' E 013°18'0 0.0
2018-Jun-09 09:58N 45°39' E 013°18'0 0.1
2018-Jun-09 09:28N 45°39' E 013°18'0 0.1
2018-Jun-09 08:58N 45°39' E 013°18'0 0.0
2018-Jun-09 08:27N 45°39' E 013°18'0 0.0
2018-Jun-09 08:00N 45°39' E 013°18'0 0.0
2018-Jun-09 07:03N 45°39' E 013°18'0 0.0
2018-Jun-09 07:00N 45°39' E 013°18'0 0.0
2018-Jun-09 06:18N 45°39' E 013°18'0 0.0
2018-Jun-09 05:53N 45°39' E 013°18'0 0.0
2018-Jun-09 05:29N 45°39' E 013°18'0 0.0
2018-Jun-09 04:50N 45°39' E 013°18'0 0.0
2018-Jun-09 04:11N 45°39' E 013°18'0 0.0
2018-Jun-09 03:58N 45°39' E 013°18'0 0.0
2018-Jun-09 03:25N 45°39' E 013°18'0 0.0
2018-Jun-09 02:40N 45°39' E 013°18'0 0.0
2018-Jun-09 02:25N 45°39' E 013°18'0 0.0
2018-Jun-09 01:33N 45°39' E 013°18'0 0.2
2018-Jun-09 01:30N 45°39' E 013°18'0 0.0
2018-Jun-09 01:00N 45°39' E 013°18'0 0.0
2018-Jun-09 00:30N 45°39' E 013°18'0 0.0
2018-Jun-08 23:51N 45°39' E 013°18'0 0.0
2018-Jun-08 23:14N 45°39' E 013°18'0 0.0
2018-Jun-08 22:59N 45°39' E 013°18'0 0.0
2018-Jun-08 22:29N 45°39' E 013°18'0 0.0
2018-Jun-08 21:53N 45°39' E 013°18'0 0.0
2018-Jun-08 21:17N 45°39' E 013°18'0 0.1
2018-Jun-08 20:52N 45°39' E 013°18'0 0.0
2018-Jun-08 20:19N 45°39' E 013°18'0 0.0
2018-Jun-08 19:58N 45°39' E 013°18'0 0.3
2018-Jun-08 19:28N 45°39' E 013°18'0 0.0
2018-Jun-08 18:58N 45°39' E 013°18'0 0.1
2018-Jun-08 18:30N 45°39' E 013°18'0 0.0
2018-Jun-08 17:51N 45°39' E 013°18'0 0.2
2018-Jun-08 17:24N 45°39' E 013°18'0 0.1
2018-Jun-08 16:51N 45°39' E 013°18'0 0.2
2018-Jun-08 16:30N 45°39' E 013°18'0 0.0
2018-Jun-08 15:29N 45°39' E 013°18'0 0.0
2018-Jun-08 14:56N 45°39' E 013°18'0 0.0
2018-Jun-08 14:17N 45°39' E 013°18'0 0.1
2018-Jun-08 13:58N 45°39' E 013°18'  

Dump ship's entire track history